Pullman Moscow Regional Airport
KPUW : now visible

Airfield :











YOU CAN JOIN US ON...

 
LOGIN :

Register | Disclaimer

   EN    FR    IT 

 









Legend :    VFR   Marginal VFR   IFR   Intensive IFR   Very Intensive IFR
Visi :
Ceiling :
>= 8 km
>= 3000ft
5 to 8 km
1000 to 3000 ft
1500m to 5 km
500 to 1000 ft
800 to 1500m
200 to 500 ft
< 800m
< 200 ft
Symbols :   Thunderstorms  Fog  Heavy snow  Heavy precipitations  Wind > 20 kt







- Airport Elevation : 2556 ft
- IATA code : PUW


KPUW - Pullman Moscow Regional

CURRENT METAR :
  • 221853Z AUTO 10019G24KT 10SM FEW070 17/M01 A2992 RMK AO2 SLP132 T01671006

EXPIRED METARs :
  • 221753Z AUTO 10017G25KT 10SM CLR 16/M01 A2991 RMK AO2 PK WND 09026/1733 SLP127 T01611006 10172 20067 53007
  • 221653Z AUTO 10013G21KT 10SM CLR 16/02 A2989 RMK AO2 SLP122 T01610017

TAF KPUW
Valid from the 22 at 18:00 until the 23 at 18:00 UTC


221742Z 2218/2318 09013G21KT P6SM SCT080 BKN120 BKN200
FM230100 04007KT P6SM SCT070 SCT200
FM231200 08007KT P6SM BKN250
KZSE FIR / North America



MET'MAP, your aeronautical weather chart ! - Copyright ORBIFLY December 2007 - Disclaimer

ORBIFLY MET'MAP TEAM :

Programming & Development : Alexandra Zaïnal
Concept & Development : Baudouin d'Aumeries
Co-Development & Prog : Marc-Olivier Méhu
Technical & hardware support : Manuel Goepfert

Contact : metmap@orbifly.com




SOURCES & CREDITS :

   NOAA       Earth
Advisory